Pagrindinis puslapis
METAR-TAF:

METAR-TAF

Oro uostai :

Pjačenca, Italija

platuma: 44-55N, ilguma: 009-44E, Aukštis: 134 m

Dabartinis oras

Ataskaita buvo paskelbta 3 valandos ir 36 minutes, ne 17:55 UTC
Ramus vėjas
Temperatūra 7°C
Drėgmė 100%
Slėgis 1016 hPa
Matomumas: 4500 m
Mažai debesys ne aukštis 6000 ft
rūkana

METAR: LIMS 271755Z 00000KT 4500 BR FEW060 07/07 Q1016 RMK OVC BKN120 VIS MIN 4500 WIND THR30 28001KT GRN

Laikas: 22:31 (21:31 UTC)


TAF: trūkstamas

Orai ataskaitas ir orų prognozės (METAR, TAF).

turimą stotys yra geltonos ir raudonos taškus žemėlapyje.

Perkelti pele per norėdami pamatyti stoties vardą.

Tada spustelėkite, norėdami matyti oro stebėjimo ir prognozės.

Norėdami pakeisti žemėlapį: spustelėkite ant žalios mygtukų su juodo kryžiaus žemyn,; žalią mygtuką su brūkšneliu, jei norite nutolinti; arba žalių rodyklių gretimoms žemėlapius.


METAR-TAF: